Aviation Digital Data Service (ADDS)

Output produced by METARs form (0226 UTC 26 July 2017)
found at http://www.aviationweather.gov/adds/metars/
 
KJST 260154Z AUTO 08003KT 10SM SCT033 17/13 A3025 RMK AO2 SLP238 T01670128 $
KJST 260054Z AUTO 03003KT 10SM FEW035 17/13 A3024 RMK AO2 SLP234 T01670133 $
KJST 252354Z AUTO 34005KT 10SM FEW026 BKN038 19/14 A3023 RMK AO2 SLP229 T01890139 10206 20178 $
KJST 252254Z AUTO 34006KT 10SM BKN040 19/13 A3023 RMK AO2 SLP228 T01940133 $
KJST 252154Z AUTO 32007KT 10SM BKN038 19/13 A3022 RMK AO2 SLP226 T01940133 $
KJST 252054Z AUTO 32007KT 10SM OVC039 19/14 A3022 RMK AO2 SLP225 T01940139 50002
KJST 251954Z AUTO 29008KT 10SM OVC036 19/14 A3022 RMK AO2 SLP227 T01890139
KJST 251929Z AUTO 29008KT 10SM FEW022 SCT027 OVC036 18/14 A3022 RMK AO2 T01830139
KJST 251921Z AUTO 29008KT 10SM BKN022 OVC036 18/14 A3022 RMK AO2 T01830139
KJST 251854Z AUTO 29007KT 10SM SCT020 OVC035 18/14 A3021 RMK AO2 SLP223 T01830139
KJST 251840Z AUTO 33007KT 10SM FEW018 SCT027 OVC034 18/14 A3021 RMK AO2 T01830139
KJST 251754Z AUTO 32006KT 10SM BKN019 BKN024 OVC031 18/14 A3021 RMK AO2 SLP224 60000 T01780139 10189 20144 51007
KJST 251749Z AUTO 31007KT 290V360 10SM BKN019 BKN024 OVC031 18/13 A3021 RMK AO2
KJST 251734Z AUTO 32007KT 10SM FEW019 SCT025 OVC030 18/13 A3020 RMK AO2 T01830133
KJST 251654Z AUTO 30008KT 10SM FEW015 BKN023 OVC027 18/13 A3020 RMK AO2 SLP220 T01780133
KJST 251611Z AUTO 32008KT 10SM BKN015 OVC024 17/14 A3019 RMK AO2 T01720139
KJST 251601Z AUTO 29009KT 10SM BKN014 OVC022 16/13 A3019 RMK AO2 T01610133
KJST 251554Z AUTO 31011KT 10SM OVC016 17/13 A3019 RMK AO2 SLP216 T01670133
KJST 251540Z AUTO 29008KT 10SM BKN014 OVC024 17/14 A3018 RMK AO2 T01720139
KJST 251527Z AUTO 31008KT 10SM SCT014 OVC022 17/13 A3018 RMK AO2 T01670133
KJST 251510Z AUTO 31008KT 10SM BKN014 BKN019 OVC024 16/13 A3018 RMK AO2 T01560133
KJST 251454Z AUTO 30009KT 10SM FEW010 BKN019 OVC024 16/13 A3019 RMK AO2 RAB1356E11 SLP216 P0000 60000 T01610133 53008
KJST 251416Z AUTO 29010KT 10SM SCT013 OVC021 16/13 A3018 RMK AO2 RAB1356E11 P0000 T01560133
KJST 251354Z AUTO 30009KT 10SM BKN014 OVC020 16/13 A3018 RMK AO2 RAB1257E06 SLP212 P0000 T01560128
KJST 251254Z AUTO 31010KT 9SM OVC013 15/13 A3016 RMK AO2 SLP207 T01500128
KJST 251249Z AUTO 31008KT 10SM OVC013 15/13 A3016 RMK AO2
KJST 251154Z AUTO 31008KT 10SM FEW009 OVC019 15/13 A3015 RMK AO2 SLP200 70012 T01500133 10156 20144 53012
KJST 251120Z AUTO 31010KT 10SM SCT007 SCT015 OVC022 14/13 A3013 RMK AO2 T01440133
KJST 251054Z AUTO 31009KT 10SM BKN008 OVC022 14/13 A3012 RMK AO2 CIG 007V013 SLP192 T01440133
KJST 251047Z AUTO 30008KT 10SM BKN008 OVC024 14/13 A3012 RMK AO2 CIG 007V013 T01440128
KJST 251012Z AUTO 30009KT 10SM OVC010 14/13 A3011 RMK AO2 CIG 008V014 T01440128
KJST 250954Z AUTO 31010KT 10SM OVC009 14/13 A3011 RMK AO2 CIG 009V014 SLP187 T01440128
KJST 250952Z AUTO 31009KT 10SM OVC009 14/13 A3011 RMK AO2 CIG 009V014
KJST 250854Z AUTO 31009KT 10SM OVC011 15/13 A3009 RMK AO2 SLP178 T01500128 53007
KJST 250814Z AUTO 30008KT 10SM BKN012 BKN017 OVC032 15/13 A3008 RMK AO2 T01500128
KJST 250754Z AUTO 31011KT 10SM OVC016 15/13 A3007 RMK AO2 SLP174 T01500128
KJST 250722Z AUTO 30011KT 10SM OVC014 15/13 A3007 RMK AO2 T01500128
KJST 250654Z AUTO 29008KT 10SM SCT015 BKN022 OVC034 16/12 A3006 RMK AO2 SLP170 T01560122
KJST 250554Z AUTO 29007KT 10SM FEW019 OVC033 16/12 A3007 RMK AO2 SLP170 T01560122 10200 20156 51010
KJST 250454Z AUTO 31007KT 10SM OVC035 16/12 A3006 RMK AO2 SLP169 T01610122 402440161
KJST 250354Z AUTO 31009KT 10SM BKN033 16/12 A3004 RMK AO2 SLP164 T01610122
KJST 250254Z AUTO 30008KT 10SM BKN042 17/14 A3003 RMK AO2 SLP161 T01670139 51019
KJST 250154Z AUTO 32012KT 10SM OVC035 18/14 A3002 RMK AO2 SLP157 T01780139
KJST 250054Z AUTO 31007KT 10SM OVC036 19/14 A2999 RMK AO2 SLP145 T01890144
KJST 250018Z AUTO 31007KT 10SM FEW023 OVC032 19/15 A2998 RMK AO2 T01940150
KJST 242354Z AUTO 31008KT 10SM OVC024 20/16 A2997 RMK AO2 SLP138 60012 T02000156 10244 20194 53019
KJST 242254Z AUTO 30011G19KT 10SM BKN025 OVC036 21/17 A2995 RMK AO2 SLP129 T02110167
KJST 242237Z AUTO 31011G22KT 10SM BKN024 BKN031 22/17 A2995 RMK AO2 T02170167
KJST 242219Z AUTO 31013KT 10SM SCT026 SCT030 23/17 A2994 RMK AO2 T02280172
KJST 242202Z AUTO 32012G19KT 10SM BKN026 BKN034 OVC050 23/18 A2993 RMK AO2 T02280178
KJST 242154Z AUTO 30012G18KT 10SM SCT024 BKN030 OVC050 22/17 A2993 RMK AO2 SLP120 T02220172
KJST 242136Z AUTO 31012G18KT 10SM SCT021 BKN026 OVC044 23/18 A2992 RMK AO2 T02280178
KJST 242120Z AUTO 30009KT 10SM SCT020 BKN038 OVC046 23/18 A2992 RMK AO2 T02280183
KJST 242054Z AUTO 31013G21KT 10SM BKN020 BKN026 22/18 A2992 RMK AO2 SLP116 60012 T02220183 50004
KJST 242038Z AUTO 31010KT 10SM BKN020 BKN026 23/19 A2992 RMK AO2 T02280189
KJST 241954Z AUTO 28007KT 10SM FEW035 SCT044 22/19 A2992 RMK AO2 WSHFT 1845 RAE20 SLP119 P0008 T02170189
KJST 241922Z AUTO 32007KT 10SM FEW009 BKN040 OVC090 21/18 A2991 RMK AO2 WSHFT 1845 RAE20 P0008 T02060183
KJST 241914Z AUTO 33008G19KT 2 1/2SM -RA BR FEW009 BKN037 OVC050 19/18 A2991 RMK AO2 WSHFT 1845 P0008 T01940183
KJST 241904Z AUTO 33015G23KT 2 1/2SM -RA BR FEW008 BKN028 OVC060 20/18 A2992 RMK AO2 WSHFT 1845 P0004 T02000183
KJST 241859Z AUTO 33016G21KT 1 3/4SM +RA BR SCT015 BKN031 OVC055 21/19 A2991 RMK AO2 WSHFT 1845 P0003 T02060189
KJST 241854Z AUTO 30015KT 2 1/2SM +RA FEW024 BKN055 OVC080 22/19 A2991 RMK AO2 RAB41 SLP116 P0004 T02170189
KJST 241814Z AUTO 27009KT 10SM FEW022 SCT029 BKN039 23/18 A2991 RMK AO2 T02330183
KJST 241754Z AUTO 25009KT 10SM FEW019 BKN026 OVC036 23/18 A2990 RMK AO2 SLP110 T02280183 10228 20183 58005
KJST 241738Z AUTO 24006KT 10SM BKN016 BKN023 OVC065 23/18 A2991 RMK AO2 T02280183
KJST 241654Z AUTO 23003KT 10SM BKN012 OVC018 21/18 A2991 RMK AO2 SLP116 T02110183
KJST 241619Z AUTO VRB04KT 10SM OVC012 21/18 A2992 RMK AO2 T02060183
KJST 241554Z AUTO 23006KT 10SM SCT009 OVC015 20/18 A2992 RMK AO2 SLP117 T02000178
KJST 241550Z AUTO 23005KT 10SM FEW006 SCT009 OVC014 20/18 A2992 RMK AO2
KJST 241541Z AUTO 23006KT 10SM SCT006 SCT009 OVC016 21/18 A2991 RMK AO2 T02060183
KJST 241454Z AUTO 25004KT 8SM OVC005 19/18 A2991 RMK AO2 SLP116 T01940183 51003
KJST 241440Z AUTO 23005KT 8SM OVC005 19/18 A2992 RMK AO2 T01890183